Time;durP1;ratioP1;P1;durP2;ratioP2;P2;SDS_P1;SDS_P2;PMS_P1;PMS_P2;Temp;Humidity;BMP_temperature;BMP_pressure;BME280_temperature;BME280_humidity;BME280_pressure;Samples;Min_cycle;Max_cycle;Signal;HPM_P1;HPM_P2
2023/07/31 00:11:50;;;;;;;9.40;6.70;;;;;;;19.68;100.00;99667.03;677303;1270;139904;-76
2023/07/31 00:26:54;;;;;;;11.60;6.80;;;;;;;19.93;100.00;99664.77;676843;1283;138614;-76
2023/07/31 00:41:57;;;;;;;9.40;6.70;;;;;;;19.91;100.00;99663.57;675277;1276;139871;-76
2023/07/31 00:57:00;;;;;;;9.20;6.90;;;;;;;19.65;100.00;99665.98;677181;1275;138816;-76
2023/07/31 01:12:07;;;;;;;8.90;5.90;;;;;;;19.51;100.00;99674.36;676189;1274;140431;-76
2023/07/31 01:27:17;;;;;;;7.80;5.60;;;;;;;19.54;100.00;99667.69;673014;1273;140120;-76
2023/07/31 01:42:21;;;;;;;7.00;5.10;;;;;;;19.93;100.00;99669.91;674630;1276;139938;-76
2023/07/31 01:57:24;;;;;;;7.30;4.70;;;;;;;19.78;100.00;99673.88;677142;1276;139665;-76
2023/07/31 02:12:30;;;;;;;5.30;3.90;;;;;;;19.72;100.00;99677.31;675767;1271;140421;-76
2023/07/31 02:27:33;;;;;;;3.90;2.90;;;;;;;19.69;99.86;99679.80;674439;1275;141335;-76
2023/07/31 02:42:37;;;;;;;6.50;3.20;;;;;;;19.62;98.98;99673.61;675123;1276;140506;-76
2023/07/31 02:57:40;;;;;;;4.00;2.60;;;;;;;19.64;98.83;99681.75;677181;1273;139292;-77
2023/07/31 03:12:47;;;;;;;4.10;3.00;;;;;;;19.62;99.43;99678.73;673861;1286;140579;-76
2023/07/31 03:27:50;;;;;;;5.40;3.10;;;;;;;19.53;99.72;99689.42;675357;1271;140096;-75
2023/07/31 03:42:54;;;;;;;4.50;2.90;;;;;;;19.53;100.00;99711.39;674331;1271;140162;-75
2023/07/31 03:57:57;;;;;;;8.70;3.00;;;;;;;19.60;99.94;99714.25;681483;1264;140841;-76
2023/07/31 04:13:00;;;;;;;4.60;2.90;;;;;;;19.72;99.20;99728.39;680512;1263;140138;-74
2023/07/31 04:28:04;;;;;;;4.50;2.70;;;;;;;19.89;97.77;99745.76;680424;1258;139480;-76
2023/07/31 04:43:07;;;;;;;3.90;2.10;;;;;;;20.11;94.79;99745.12;681657;1259;141016;-75
2023/07/31 04:58:11;;;;;;;3.00;2.10;;;;;;;20.35;91.83;99762.09;680827;1258;139861;-75
2023/07/31 05:13:14;;;;;;;4.10;2.10;;;;;;;20.74;89.99;99767.77;680338;1264;141033;-75
2023/07/31 05:28:17;;;;;;;6.30;1.90;;;;;;;20.81;88.78;99767.52;681113;1259;140798;-76
2023/07/31 05:43:22;;;;;;;3.70;2.40;;;;;;;21.44;86.69;99772.87;679967;1264;139507;-75
2023/07/31 05:58:25;;;;;;;4.30;2.30;;;;;;;23.88;79.80;99779.94;680099;1264;141484;-76
2023/07/31 06:13:28;;;;;;;4.60;2.20;;;;;;;26.68;70.90;99784.05;679307;1263;139994;-76
2023/07/31 06:28:32;;;;;;;4.40;2.00;;;;;;;26.24;66.37;99795.84;681030;1264;139376;-77
2023/07/31 06:43:36;;;;;;;3.60;1.90;;;;;;;26.38;65.94;99796.58;681355;1264;138132;-79
2023/07/31 06:58:39;;;;;;;4.10;2.00;;;;;;;26.55;64.90;99804.50;681732;1259;139409;-76
2023/07/31 07:13:42;;;;;;;7.50;3.20;;;;;;;26.16;64.24;99806.42;679425;1261;139721;-76
2023/07/31 07:28:46;;;;;;;8.00;2.80;;;;;;;26.35;64.11;99806.78;678463;1264;138649;-77
2023/07/31 07:43:51;;;;;;;7.30;2.70;;;;;;;27.01;61.98;99792.85;675233;1267;138171;-77
2023/07/31 07:58:54;;;;;;;6.20;2.50;;;;;;;26.83;60.42;99801.09;675372;1263;138659;-76
2023/07/31 08:13:58;;;;;;;4.10;1.70;;;;;;;26.80;59.38;99805.46;676921;1263;140137;-78
2023/07/31 08:29:01;;;;;;;5.10;1.80;;;;;;;27.59;57.16;99804.17;673457;1263;138742;-77
2023/07/31 08:44:06;;;;;;;3.30;1.20;;;;;;;28.14;56.14;99801.77;677023;1262;138459;-76
2023/07/31 08:59:14;;;;;;;1.80;1.30;;;;;;;27.83;54.76;99788.16;676697;1259;139988;-78
2023/07/31 09:14:18;;;;;;;5.40;1.80;;;;;;;28.74;54.56;99781.65;679437;1264;138587;-77
2023/07/31 09:29:21;;;;;;;6.30;1.50;;;;;;;28.66;52.57;99772.04;679223;1264;139442;-77
2023/07/31 09:44:40;;;;;;;3.90;1.20;;;;;;;28.82;52.16;99767.88;679025;1264;139353;-76
2023/07/31 09:59:45;;;;;;;11.40;2.40;;;;;;;28.85;51.86;99753.60;680853;1265;138800;-76
2023/07/31 10:14:48;;;;;;;2.90;1.40;;;;;;;28.87;52.13;99751.05;679093;1264;138551;-77
2023/07/31 10:29:54;;;;;;;7.90;1.70;;;;;;;29.04;51.57;99741.98;678622;1264;138603;-78
2023/07/31 10:45:10;;;;;;;3.50;1.60;;;;;;;28.79;51.68;99731.23;678505;1264;138005;-76
2023/07/31 11:00:22;;;;;;;4.50;2.00;;;;;;;27.85;53.37;99725.38;678233;1265;138897;-76
2023/07/31 11:15:27;;;;;;;6.70;1.90;;;;;;;27.85;52.34;99713.06;680993;1264;139521;-76
2023/07/31 11:30:31;;;;;;;5.60;1.50;;;;;;;27.23;52.65;99710.45;681541;1264;138112;-76
2023/07/31 11:45:35;;;;;;;5.30;2.00;;;;;;;28.15;52.79;99697.81;681278;1263;166972;-77
2023/07/31 12:00:38;;;;;;;51.30;18.40;;;;;;;26.88;53.24;99677.71;681594;1263;141528;-79
2023/07/31 12:15:44;;;;;;;8.00;2.30;;;;;;;25.32;56.79;99670.10;680957;1271;139288;-77
2023/07/31 12:30:47;;;;;;;5.80;2.90;;;;;;;24.16;66.05;99707.20;680365;1275;138978;-77
2023/07/31 12:45:50;;;;;;;4.90;2.90;;;;;;;21.92;86.58;99735.19;680108;1263;138301;-76
2023/07/31 13:00:54;;;;;;;4.80;2.80;;;;;;;21.98;89.27;99727.86;679130;1262;139801;-76
2023/07/31 13:15:58;;;;;;;7.20;3.60;;;;;;;22.19;88.13;99691.14;680154;1263;140421;-77
2023/07/31 13:31:02;;;;;;;5.80;2.80;;;;;;;22.24;85.02;99667.45;680136;1263;139410;-78
2023/07/31 13:46:07;;;;;;;4.90;2.30;;;;;;;22.69;80.17;99649.33;678902;1262;142387;-77
2023/07/31 14:01:10;;;;;;;6.10;3.40;;;;;;;22.64;77.74;99640.20;678811;1263;139240;-76
2023/07/31 14:16:14;;;;;;;7.60;3.00;;;;;;;22.66;75.56;99629.61;680824;1263;141785;-76
2023/07/31 14:31:18;;;;;;;4.60;2.40;;;;;;;23.12;73.10;99618.54;680781;1275;140284;-77
2023/07/31 14:46:21;;;;;;;3.30;1.80;;;;;;;23.32;72.83;99613.58;680923;1264;139787;-76
2023/07/31 15:01:25;;;;;;;4.30;1.90;;;;;;;23.20;75.13;99614.27;678740;1276;139917;-76
2023/07/31 15:16:31;;;;;;;2.30;1.70;;;;;;;22.96;75.66;99608.77;676792;1264;139127;-76
2023/07/31 15:31:41;;;;;;;4.30;2.10;;;;;;;23.28;75.21;99598.94;681330;1272;139618;-76
2023/07/31 15:46:48;;;;;;;2.90;2.20;;;;;;;23.68;73.97;99590.20;680487;1264;140209;-78
2023/07/31 16:01:51;;;;;;;4.60;2.70;;;;;;;23.62;74.99;99573.93;681434;1261;138750;-79
2023/07/31 16:16:56;;;;;;;3.70;2.50;;;;;;;23.44;75.57;99569.65;680534;1260;141814;-79
2023/07/31 16:32:00;;;;;;;9.10;3.10;;;;;;;23.00;77.67;99566.60;681041;1260;138940;-77
2023/07/31 16:47:03;;;;;;;4.30;3.00;;;;;;;22.83;78.95;99575.27;677783;1264;140050;-76
2023/07/31 17:02:07;;;;;;;4.60;2.00;;;;;;;22.48;81.87;99587.15;674616;1264;138709;-76
2023/07/31 17:17:11;;;;;;;3.20;1.80;;;;;;;22.46;83.14;99592.68;680452;1262;141969;-77
2023/07/31 17:32:14;;;;;;;4.90;3.70;;;;;;;22.58;83.18;99594.21;678813;1260;139061;-76
2023/07/31 17:47:19;;;;;;;3.30;2.10;;;;;;;22.63;83.04;99576.36;680366;1262;141050;-78
2023/07/31 18:02:23;;;;;;;8.60;2.90;;;;;;;22.77;82.59;99561.22;678752;1259;140481;-76
2023/07/31 18:17:27;;;;;;;10.20;4.20;;;;;;;22.51;83.50;99557.94;679035;1262;139946;-78
2023/07/31 18:32:38;;;;;;;5.20;2.90;;;;;;;22.25;85.54;99563.23;681772;1262;139470;-79
2023/07/31 18:47:51;;;;;;;3.70;2.60;;;;;;;22.81;84.05;99562.51;681237;1261;139305;-77
2023/07/31 19:02:55;;;;;;;7.30;3.20;;;;;;;22.70;83.94;99568.17;681448;1262;140192;-77
2023/07/31 19:18:00;;;;;;;5.50;2.90;;;;;;;22.12;87.02;99559.40;680860;1259;140246;-76
2023/07/31 19:33:04;;;;;;;4.90;3.10;;;;;;;22.08;87.10;99529.47;680252;1273;139460;-76
2023/07/31 19:48:10;;;;;;;7.20;3.10;;;;;;;22.87;83.44;99520.83;679605;1263;139143;-77
2023/07/31 20:03:14;;;;;;;8.40;4.30;;;;;;;22.68;82.89;99510.20;681121;1262;139125;-76
2023/07/31 20:18:18;;;;;;;7.00;4.00;;;;;;;22.44;85.16;99493.77;680517;1259;140458;-76
2023/07/31 20:33:21;;;;;;;7.60;4.30;;;;;;;21.72;89.44;99480.66;680483;1272;140229;-77
2023/07/31 20:48:26;;;;;;;6.70;3.60;;;;;;;21.83;90.12;99456.39;681450;1258;139532;-75
2023/07/31 21:03:30;;;;;;;7.30;4.20;;;;;;;22.08;88.31;99449.02;681165;1257;139530;-77
2023/07/31 21:18:34;;;;;;;7.60;3.80;;;;;;;22.42;86.13;99424.85;680943;1260;141034;-77
2023/07/31 21:33:38;;;;;;;5.30;3.40;;;;;;;22.30;86.02;99414.42;681880;1262;139465;-77
2023/07/31 21:48:41;;;;;;;5.40;3.60;;;;;;;21.88;88.57;99408.56;681183;1258;141120;-77
2023/07/31 22:03:45;;;;;;;7.00;4.10;;;;;;;21.74;89.27;99413.30;680213;1263;140355;-76
2023/07/31 22:18:48;;;;;;;5.00;3.50;;;;;;;21.52;90.90;99405.60;679990;1263;139643;-76
2023/07/31 22:33:51;;;;;;;9.20;4.10;;;;;;;21.42;91.24;99382.42;678601;1258;139598;-76
2023/07/31 22:48:55;;;;;;;6.30;3.70;;;;;;;22.00;88.26;99365.16;680040;1263;139136;-77
2023/07/31 23:03:58;;;;;;;8.50;4.60;;;;;;;21.80;88.58;99349.34;680764;1263;139809;-76
2023/07/31 23:19:02;;;;;;;6.40;4.10;;;;;;;21.86;87.92;99328.48;678622;1262;140166;-76
2023/07/31 23:34:05;;;;;;;7.40;4.20;;;;;;;22.05;86.90;99315.93;681895;1263;139460;-76
2023/07/31 23:49:08;;;;;;;7.90;4.70;;;;;;;21.76;87.71;99308.56;680441;1259;144795;-76
